There are multiple Weather-warnings   Click here for more information


Meteo18 Weather Cam more information Meteo18 Weather Cam


Thunder radar more information blitzortung!


warning for Snow/Ice more information rain snow radar


Visit our other weather sites:

Template documentation
and downloads

And another site



Weather Underground History page Text

Daily Summary for May 15, 2017 Units:  Both    English   Metric
« Previous Day
Next Day »
Daily Weekly Monthly Yearly Custom
  High: Low: Average:
Temperature: TemperatureC °F /  -17.8 °C 7.2 °F /  -13.8 °C 15.9 °F /  -8.9 °C
Dew Point: DewpointC °F /  -17.8 °C 6.3 °F /  -14.3 °C 9.8 °F /  -12.3 °C
Humidity: Humidity % 41 % 70 %
Wind Speed: WindSpeedKMH mph /  0 km/h - 0.9 mph /  1.4 km/h
Wind Gust: WindSpeedGustKMH mph /  0 km/h - -
Wind:- - South
Pressure: PressurehPa in /  0 hPa 1027.7 in /  34797.9 hPa -
Precipitation: 0.0 in /  0 mm    
Historical Graphs
 
 
Tabular Data for May 15, 2017
Time Temperature Dew Point Pressure Wind Wind Speed Wind Gust Humidity Rainfall Rate (Hourly)
TemperatureC °F /  -17.8 °C DewpointC °F /  -17.8 °C PressurehPa in /  0 hPa Calm     Humidity % HourlyPrecipMM in /  0 mm
00:02 10.9 °F /  -11.7 °C 8.5 °F /  -13.1 °C 1027.7 in /  34797.9 hPa Calm     85 % 0.0 in /  0 mm
00:07 10.7 °F /  -11.8 °C 8.5 °F /  -13.1 °C 1028.0 in /  34808.1 hPa Calm   1.6 mph /  2.6 km/h 86 % 0.0 in /  0 mm
00:12 10.4 °F /  -12 °C 8.3 °F /  -13.2 °C 1028.0 in /  34808.1 hPa Calm   1.6 mph /  2.6 km/h 87 % 0.0 in /  0 mm
00:17 10.4 °F /  -12 °C 8.2 °F /  -13.2 °C 1028.0 in /  34808.1 hPa Calm   1.6 mph /  2.6 km/h 86 % 0.0 in /  0 mm
00:22 10.4 °F /  -12 °C 8.2 °F /  -13.2 °C 1028.0 in /  34808.1 hPa Calm   3.2 mph /  5.1 km/h 86 % 0.0 in /  0 mm
00:32 10.4 °F /  -12 °C 8.2 °F /  -13.2 °C 1028.0 in /  34808.1 hPa Calm   3.2 mph /  5.1 km/h 86 % 0.0 in /  0 mm
00:42 10.6 °F /  -11.9 °C 8.0 °F /  -13.3 °C 1028.0 in /  34808.1 hPa Calm     84 % 0.0 in /  0 mm
00:52 10.3 °F /  -12.1 °C 7.9 °F /  -13.4 °C 1028.0 in /  34808.1 hPa Calm     85 % 0.0 in /  0 mm
00:57 10.3 °F /  -12.1 °C 8.1 °F /  -13.3 °C 1028.0 in /  34808.1 hPa Calm     86 % 0.0 in /  0 mm
01:02 10.2 °F /  -12.1 °C 8.1 °F /  -13.3 °C 1028.0 in /  34808.1 hPa Calm     87 % 0.0 in /  0 mm
01:12 9.9 °F /  -12.3 °C 7.8 °F /  -13.4 °C 1028.0 in /  34808.1 hPa Calm     87 % 0.0 in /  0 mm
01:17 10.0 °F /  -12.2 °C 8.1 °F /  -13.3 °C 1028.3 in /  34818.2 hPa Calm     88 % 0.0 in /  0 mm
01:22 9.9 °F /  -12.3 °C 8.0 °F /  -13.3 °C 1028.0 in /  34808.1 hPa Calm     88 % 0.0 in /  0 mm
01:32 9.8 °F /  -12.3 °C 7.9 °F /  -13.4 °C 1028.0 in /  34808.1 hPa Calm     88 % 0.0 in /  0 mm
01:37 9.6 °F /  -12.4 °C 7.7 °F /  -13.5 °C 1028.0 in /  34808.1 hPa Calm     88 % 0.0 in /  0 mm
01:42 9.4 °F /  -12.6 °C 7.7 °F /  -13.5 °C 1028.0 in /  34808.1 hPa Calm     89 % 0.0 in /  0 mm
01:47 9.3 °F /  -12.6 °C 7.6 °F /  -13.6 °C 1028.3 in /  34818.2 hPa Calm     89 % 0.0 in /  0 mm
01:52 9.2 °F /  -12.7 °C 7.6 °F /  -13.6 °C 1028.3 in /  34818.2 hPa Calm     90 % 0.0 in /  0 mm
01:57 9.3 °F /  -12.6 °C 7.7 °F /  -13.5 °C 1028.3 in /  34818.2 hPa Calm     90 % 0.0 in /  0 mm
02:02 9.4 °F /  -12.6 °C 7.7 °F /  -13.5 °C 1028.3 in /  34818.2 hPa Calm     89 % 0.0 in /  0 mm
02:12 9.4 °F /  -12.6 °C 7.7 °F /  -13.5 °C 1028.3 in /  34818.2 hPa Calm     89 % 0.0 in /  0 mm
02:17 9.4 °F /  -12.6 °C 7.7 °F /  -13.5 °C 1028.3 in /  34818.2 hPa Calm     89 % 0.0 in /  0 mm
02:22 9.3 °F /  -12.6 °C 7.4 °F /  -13.7 °C 1028.3 in /  34818.2 hPa Calm     88 % 0.0 in /  0 mm
02:32 9.2 °F /  -12.7 °C 7.5 °F /  -13.6 °C 1028.3 in /  34818.2 hPa Calm     89 % 0.0 in /  0 mm
02:42 9.0 °F /  -12.8 °C 7.4 °F /  -13.7 °C 1028.3 in /  34818.2 hPa Calm     90 % 0.0 in /  0 mm
02:47 8.9 °F /  -12.8 °C 7.3 °F /  -13.7 °C 1028.3 in /  34818.2 hPa Calm     90 % 0.0 in /  0 mm
02:52 8.7 °F /  -12.9 °C 7.2 °F /  -13.8 °C 1028.3 in /  34818.2 hPa Calm     90 % 0.0 in /  0 mm
02:57 8.7 °F /  -12.9 °C 7.2 °F /  -13.8 °C 1028.3 in /  34818.2 hPa Calm     90 % 0.0 in /  0 mm
03:02 8.5 °F /  -13.1 °C 7.0 °F /  -13.9 °C 1028.3 in /  34818.2 hPa Calm     90 % 0.0 in /  0 mm
03:12 8.4 °F /  -13.1 °C 7.2 °F /  -13.8 °C 1028.7 in /  34831.8 hPa Calm     92 % 0.0 in /  0 mm
03:17 8.4 °F /  -13.1 °C 7.2 °F /  -13.8 °C 1028.7 in /  34831.8 hPa Calm     92 % 0.0 in /  0 mm
03:22 8.4 °F /  -13.1 °C 7.2 °F /  -13.8 °C 1028.7 in /  34831.8 hPa Calm     92 % 0.0 in /  0 mm
03:27 8.3 °F /  -13.2 °C 7.1 °F /  -13.8 °C 1028.7 in /  34831.8 hPa Calm     92 % 0.0 in /  0 mm
03:32 8.2 °F /  -13.2 °C 7.0 °F /  -13.9 °C 1028.7 in /  34831.8 hPa Calm     92 % 0.0 in /  0 mm
03:37 8.2 °F /  -13.2 °C 7.0 °F /  -13.9 °C 1028.7 in /  34831.8 hPa Calm     92 % 0.0 in /  0 mm
03:42 8.2 °F /  -13.2 °C 7.0 °F /  -13.9 °C 1028.7 in /  34831.8 hPa Calm     92 % 0.0 in /  0 mm
03:47 8.2 °F /  -13.2 °C 7.1 °F /  -13.8 °C 1028.7 in /  34831.8 hPa Calm     93 % 0.0 in /  0 mm
03:52 8.2 °F /  -13.2 °C 7.1 °F /  -13.8 °C 1028.7 in /  34831.8 hPa Calm     93 % 0.0 in /  0 mm
03:57 8.1 °F /  -13.3 °C 6.9 °F /  -13.9 °C 1028.7 in /  34831.8 hPa Calm     92 % 0.0 in /  0 mm
04:02 8.1 °F /  -13.3 °C 7.0 °F /  -13.9 °C 1028.7 in /  34831.8 hPa Calm     93 % 0.0 in /  0 mm
04:07 8.1 °F /  -13.3 °C 6.9 °F /  -13.9 °C 1028.7 in /  34831.8 hPa Calm     92 % 0.0 in /  0 mm
04:12 8.0 °F /  -13.3 °C 6.9 °F /  -13.9 °C 1028.7 in /  34831.8 hPa Calm     93 % 0.0 in /  0 mm
04:17 8.0 °F /  -13.3 °C 6.9 °F /  -13.9 °C 1028.7 in /  34831.8 hPa Calm     93 % 0.0 in /  0 mm
04:22 8.1 °F /  -13.3 °C 7.0 °F /  -13.9 °C 1028.7 in /  34831.8 hPa Calm     93 % 0.0 in /  0 mm
04:27 8.0 °F /  -13.3 °C 6.9 °F /  -13.9 °C 1028.7 in /  34831.8 hPa Calm     93 % 0.0 in /  0 mm
04:32 8.0 °F /  -13.3 °C 6.9 °F /  -13.9 °C 1028.7 in /  34831.8 hPa Calm     93 % 0.0 in /  0 mm
04:37 8.1 °F /  -13.3 °C 7.0 °F /  -13.9 °C 1029.0 in /  34841.9 hPa Calm     93 % 0.0 in /  0 mm
04:42 8.1 °F /  -13.3 °C 7.0 °F /  -13.9 °C 1029.0 in /  34841.9 hPa Calm     93 % 0.0 in /  0 mm
04:47 7.9 °F /  -13.4 °C 6.8 °F /  -14 °C 1028.7 in /  34831.8 hPa Calm     93 % 0.0 in /  0 mm
04:52 7.9 °F /  -13.4 °C 6.8 °F /  -14 °C 1029.0 in /  34841.9 hPa Calm     93 % 0.0 in /  0 mm
05:02 7.8 °F /  -13.4 °C 6.7 °F /  -14.1 °C 1028.7 in /  34831.8 hPa Calm     93 % 0.0 in /  0 mm
05:12 7.6 °F /  -13.6 °C 6.5 °F /  -14.2 °C 1028.7 in /  34831.8 hPa Calm     93 % 0.0 in /  0 mm
05:17 7.6 °F /  -13.6 °C 6.7 °F /  -14.1 °C 1028.7 in /  34831.8 hPa Calm     94 % 0.0 in /  0 mm
05:22 7.6 °F /  -13.6 °C 6.7 °F /  -14.1 °C 1028.7 in /  34831.8 hPa Calm     94 % 0.0 in /  0 mm
05:32 7.4 °F /  -13.7 °C 6.5 °F /  -14.2 °C 1029.0 in /  34841.9 hPa Calm     94 % 0.0 in /  0 mm
05:37 7.5 °F /  -13.6 °C 6.6 °F /  -14.1 °C 1029.0 in /  34841.9 hPa Calm     94 % 0.0 in /  0 mm
05:42 7.5 °F /  -13.6 °C 6.6 °F /  -14.1 °C 1029.0 in /  34841.9 hPa Calm     94 % 0.0 in /  0 mm
05:47 7.6 °F /  -13.6 °C 6.9 °F /  -13.9 °C 1029.0 in /  34841.9 hPa Calm     95 % 0.0 in /  0 mm
05:52 7.7 °F /  -13.5 °C 6.8 °F /  -14 °C 1029.0 in /  34841.9 hPa Calm     94 % 0.0 in /  0 mm
06:02 7.7 °F /  -13.5 °C 6.9 °F /  -13.9 °C 1029.0 in /  34841.9 hPa Calm     95 % 0.0 in /  0 mm
06:12 7.6 °F /  -13.6 °C 6.7 °F /  -14.1 °C 1029.0 in /  34841.9 hPa Calm     94 % 0.0 in /  0 mm
06:17 7.6 °F /  -13.6 °C 6.7 °F /  -14.1 °C 1029.0 in /  34841.9 hPa Calm     94 % 0.0 in /  0 mm
06:22 7.4 °F /  -13.7 °C 6.5 °F /  -14.2 °C 1029.0 in /  34841.9 hPa Calm     94 % 0.0 in /  0 mm
06:27 7.3 °F /  -13.7 °C 6.4 °F /  -14.2 °C 1029.0 in /  34841.9 hPa Calm     94 % 0.0 in /  0 mm
06:32 7.4 °F /  -13.7 °C 6.7 °F /  -14.1 °C 1029.0 in /  34841.9 hPa Calm     95 % 0.0 in /  0 mm
06:37 7.4 °F /  -13.7 °C 6.5 °F /  -14.2 °C 1029.0 in /  34841.9 hPa Calm     94 % 0.0 in /  0 mm
06:42 7.4 °F /  -13.7 °C 6.5 °F /  -14.2 °C 1029.3 in /  34852.1 hPa Calm     94 % 0.0 in /  0 mm
06:47 7.3 °F /  -13.7 °C 6.4 °F /  -14.2 °C 1029.0 in /  34841.9 hPa Calm     94 % 0.0 in /  0 mm
06:52 7.3 °F /  -13.7 °C 6.4 °F /  -14.2 °C 1029.3 in /  34852.1 hPa Calm     94 % 0.0 in /  0 mm
06:57 7.2 °F /  -13.8 °C 6.3 °F /  -14.3 °C 1029.3 in /  34852.1 hPa Calm     94 % 0.0 in /  0 mm
07:02 7.3 °F /  -13.7 °C 6.6 °F /  -14.1 °C 1029.3 in /  34852.1 hPa Calm     95 % 0.0 in /  0 mm
07:12 7.6 °F /  -13.6 °C 6.9 °F /  -13.9 °C 1029.3 in /  34852.1 hPa Calm     95 % 0.0 in /  0 mm
07:17 7.6 °F /  -13.6 °C 6.9 °F /  -13.9 °C 1029.3 in /  34852.1 hPa Calm     95 % 0.0 in /  0 mm
07:27 7.8 °F /  -13.4 °C 7.0 °F /  -13.9 °C 1029.7 in /  34865.6 hPa Calm     95 % 0.0 in /  0 mm
07:32 8.1 °F /  -13.3 °C 7.3 °F /  -13.7 °C 1029.7 in /  34865.6 hPa Calm     95 % 0.0 in /  0 mm
07:37 8.3 °F /  -13.2 °C 7.5 °F /  -13.6 °C 1029.7 in /  34865.6 hPa Calm     95 % 0.0 in /  0 mm
07:42 8.5 °F /  -13.1 °C 7.7 °F /  -13.5 °C 1029.7 in /  34865.6 hPa Calm     95 % 0.0 in /  0 mm
07:47 8.7 °F /  -12.9 °C 7.9 °F /  -13.4 °C 1029.7 in /  34865.6 hPa Calm     95 % 0.0 in /  0 mm
07:52 8.8 °F /  -12.9 °C 7.9 °F /  -13.4 °C 1029.7 in /  34865.6 hPa Calm     94 % 0.0 in /  0 mm
07:57 9.1 °F /  -12.7 °C 8.2 °F /  -13.2 °C 1030.0 in /  34875.8 hPa Calm     94 % 0.0 in /  0 mm
08:02 9.3 °F /  -12.6 °C 8.4 °F /  -13.1 °C 1030.0 in /  34875.8 hPa Calm     94 % 0.0 in /  0 mm
08:12 10.1 °F /  -12.2 °C 9.2 °F /  -12.7 °C 1030.0 in /  34875.8 hPa Calm     94 % 0.0 in /  0 mm
08:17 10.4 °F /  -12 °C 9.5 °F /  -12.5 °C 1030.0 in /  34875.8 hPa Calm     94 % 0.0 in /  0 mm
08:22 10.7 °F /  -11.8 °C 9.6 °F /  -12.4 °C 1030.0 in /  34875.8 hPa Calm     93 % 0.0 in /  0 mm
08:32 11.8 °F /  -11.2 °C 10.5 °F /  -11.9 °C 1030.0 in /  34875.8 hPa Calm     92 % 0.0 in /  0 mm
08:37 12.3 °F /  -10.9 °C 10.5 °F /  -11.9 °C 1030.0 in /  34875.8 hPa Calm     89 % 0.0 in /  0 mm
08:42 12.9 °F /  -10.6 °C 10.8 °F /  -11.8 °C 1030.0 in /  34875.8 hPa Calm     87 % 0.0 in /  0 mm
08:47 13.5 °F /  -10.3 °C 10.8 °F /  -11.8 °C 1030.0 in /  34875.8 hPa Calm     84 % 0.0 in /  0 mm
08:52 13.3 °F /  -10.4 °C 10.3 °F /  -12.1 °C 1030.0 in /  34875.8 hPa Calm     82 % 0.0 in /  0 mm
08:57 13.1 °F /  -10.5 °C 10.5 °F /  -11.9 °C 1030.0 in /  34875.8 hPa Calm     84 % 0.0 in /  0 mm
09:02 13.4 °F /  -10.3 °C 10.8 °F /  -11.8 °C 1030.0 in /  34875.8 hPa Calm     84 % 0.0 in /  0 mm
09:12 14.0 °F /  -10 °C 11.0 °F /  -11.7 °C 1030.0 in /  34875.8 hPa Calm     82 % 0.0 in /  0 mm
09:17 14.4 °F /  -9.8 °C 11.0 °F /  -11.7 °C 1030.4 in /  34889.3 hPa Calm     80 % 0.0 in /  0 mm
09:22 14.5 °F /  -9.7 °C 11.3 °F /  -11.5 °C 1030.4 in /  34889.3 hPa Calm     81 % 0.0 in /  0 mm
09:27 14.7 °F /  -9.6 °C 11.3 °F /  -11.5 °C 1030.4 in /  34889.3 hPa SSW 1.6 mph /  2.6 km/h 3.2 mph /  5.1 km/h 80 % 0.0 in /  0 mm
09:32 14.9 °F /  -9.5 °C 11.5 °F /  -11.4 °C 1030.4 in /  34889.3 hPa South 1.6 mph /  2.6 km/h 4.8 mph /  7.7 km/h 80 % 0.0 in /  0 mm
09:37 15.1 °F /  -9.4 °C 11.9 °F /  -11.2 °C 1030.4 in /  34889.3 hPa South 1.6 mph /  2.6 km/h 4.8 mph /  7.7 km/h 81 % 0.0 in /  0 mm
09:42 15.4 °F /  -9.2 °C 11.6 °F /  -11.3 °C 1030.4 in /  34889.3 hPa Calm   4.8 mph /  7.7 km/h 78 % 0.0 in /  0 mm
09:52 16.0 °F /  -8.9 °C 11.8 °F /  -11.2 °C 1030.4 in /  34889.3 hPa Calm   4.8 mph /  7.7 km/h 76 % 0.0 in /  0 mm
10:02 16.8 °F /  -8.4 °C 11.7 °F /  -11.3 °C 1030.7 in /  34899.5 hPa Calm   4.8 mph /  7.7 km/h 72 % 0.0 in /  0 mm
10:12 16.9 °F /  -8.4 °C 11.2 °F /  -11.6 °C 1030.7 in /  34899.5 hPa SSW 1.6 mph /  2.6 km/h 3.2 mph /  5.1 km/h 69 % 0.0 in /  0 mm
10:17 17.1 °F /  -8.3 °C 11.8 °F /  -11.2 °C 1030.7 in /  34899.5 hPa Calm   3.2 mph /  5.1 km/h 71 % 0.0 in /  0 mm
10:22 17.4 °F /  -8.1 °C 11.9 °F /  -11.2 °C 1030.7 in /  34899.5 hPa South 1.6 mph /  2.6 km/h 3.2 mph /  5.1 km/h 70 % 0.0 in /  0 mm
10:32 17.9 °F /  -7.8 °C 12.1 °F /  -11.1 °C 1030.7 in /  34899.5 hPa SW 3.2 mph /  5.1 km/h 3.2 mph /  5.1 km/h 69 % 0.0 in /  0 mm
10:42 18.6 °F /  -7.4 °C 11.7 °F /  -11.3 °C 1030.7 in /  34899.5 hPa SW 4.8 mph /  7.7 km/h 4.8 mph /  7.7 km/h 64 % 0.0 in /  0 mm
10:47 18.7 °F /  -7.4 °C 12.0 °F /  -11.1 °C 1030.7 in /  34899.5 hPa SSW 1.6 mph /  2.6 km/h 4.8 mph /  7.7 km/h 65 % 0.0 in /  0 mm
10:52 19.0 °F /  -7.2 °C 12.0 °F /  -11.1 °C 1030.7 in /  34899.5 hPa SSW 3.2 mph /  5.1 km/h 8.0 mph /  12.9 km/h 64 % 0.0 in /  0 mm
10:57 18.9 °F /  -7.3 °C 11.5 °F /  -11.4 °C 1030.7 in /  34899.5 hPa SSE 3.2 mph /  5.1 km/h 8.0 mph /  12.9 km/h 62 % 0.0 in /  0 mm
11:02 18.7 °F /  -7.4 °C 11.5 °F /  -11.4 °C 1031.0 in /  34909.7 hPa SSE 1.6 mph /  2.6 km/h 8.0 mph /  12.9 km/h 63 % 0.0 in /  0 mm
11:12 18.7 °F /  -7.4 °C 11.8 °F /  -11.2 °C 1031.0 in /  34909.7 hPa SW 1.6 mph /  2.6 km/h 9.7 mph /  15.6 km/h 64 % 0.0 in /  0 mm
11:17 18.7 °F /  -7.4 °C 11.0 °F /  -11.7 °C 1031.0 in /  34909.7 hPa SW 1.6 mph /  2.6 km/h 9.7 mph /  15.6 km/h 61 % 0.0 in /  0 mm
11:22 18.8 °F /  -7.3 °C 11.8 °F /  -11.2 °C 1030.7 in /  34899.5 hPa ESE 4.8 mph /  7.7 km/h 8.0 mph /  12.9 km/h 64 % 0.0 in /  0 mm
11:32 18.9 °F /  -7.3 °C 11.9 °F /  -11.2 °C 1031.0 in /  34909.7 hPa SSW 4.8 mph /  7.7 km/h 8.0 mph /  12.9 km/h 64 % 0.0 in /  0 mm
11:42 19.0 °F /  -7.2 °C 12.3 °F /  -10.9 °C 1031.0 in /  34909.7 hPa East 4.8 mph /  7.7 km/h 6.4 mph /  10.3 km/h 65 % 0.0 in /  0 mm
11:52 19.3 °F /  -7.1 °C 11.8 °F /  -11.2 °C 1030.7 in /  34899.5 hPa SE 3.2 mph /  5.1 km/h 6.4 mph /  10.3 km/h 62 % 0.0 in /  0 mm
11:57 19.4 °F /  -7 °C 11.4 °F /  -11.4 °C 1030.7 in /  34899.5 hPa South 1.6 mph /  2.6 km/h 6.4 mph /  10.3 km/h 60 % 0.0 in /  0 mm
12:02 19.5 °F /  -6.9 °C 11.5 °F /  -11.4 °C 1030.7 in /  34899.5 hPa SE 1.6 mph /  2.6 km/h 8.0 mph /  12.9 km/h 60 % 0.0 in /  0 mm
12:12 19.8 °F /  -6.8 °C 12.1 °F /  -11.1 °C 1030.7 in /  34899.5 hPa ESE 4.8 mph /  7.7 km/h 9.7 mph /  15.6 km/h 61 % 0.0 in /  0 mm
12:17 20.2 °F /  -6.6 °C 11.1 °F /  -11.6 °C 1030.7 in /  34899.5 hPa SSE 3.2 mph /  5.1 km/h 9.7 mph /  15.6 km/h 56 % 0.0 in /  0 mm
12:22 20.2 °F /  -6.6 °C 10.3 °F /  -12.1 °C 1030.7 in /  34899.5 hPa SSW 1.6 mph /  2.6 km/h 8.0 mph /  12.9 km/h 53 % 0.0 in /  0 mm
12:27 20.4 °F /  -6.4 °C 11.3 °F /  -11.5 °C 1030.7 in /  34899.5 hPa SW 6.4 mph /  10.3 km/h 8.0 mph /  12.9 km/h 56 % 0.0 in /  0 mm
12:32 20.4 °F /  -6.4 °C 11.6 °F /  -11.3 °C 1030.7 in /  34899.5 hPa SW 4.8 mph /  7.7 km/h 6.4 mph /  10.3 km/h 57 % 0.0 in /  0 mm
12:37 20.6 °F /  -6.3 °C 11.2 °F /  -11.6 °C 1030.7 in /  34899.5 hPa ESE 4.8 mph /  7.7 km/h 8.0 mph /  12.9 km/h 55 % 0.0 in /  0 mm
12:42 20.8 °F /  -6.2 °C 11.4 °F /  -11.4 °C 1030.7 in /  34899.5 hPa Calm   8.0 mph /  12.9 km/h 55 % 0.0 in /  0 mm
12:52 20.7 °F /  -6.3 °C 11.3 °F /  -11.5 °C 1030.7 in /  34899.5 hPa SE 1.6 mph /  2.6 km/h 11.3 mph /  18.2 km/h 55 % 0.0 in /  0 mm
12:57 20.6 °F /  -6.3 °C 12.3 °F /  -10.9 °C 1030.7 in /  34899.5 hPa SE 1.6 mph /  2.6 km/h 11.3 mph /  18.2 km/h 59 % 0.0 in /  0 mm
13:02 20.8 °F /  -6.2 °C 12.2 °F /  -11 °C 1030.7 in /  34899.5 hPa ENE 1.6 mph /  2.6 km/h 11.3 mph /  18.2 km/h 58 % 0.0 in /  0 mm
13:12 20.8 °F /  -6.2 °C 11.2 °F /  -11.6 °C 1030.7 in /  34899.5 hPa SSW 4.8 mph /  7.7 km/h 11.3 mph /  18.2 km/h 54 % 0.0 in /  0 mm
13:17 20.8 °F /  -6.2 °C 11.2 °F /  -11.6 °C 1030.7 in /  34899.5 hPa SE 1.6 mph /  2.6 km/h 11.3 mph /  18.2 km/h 54 % 0.0 in /  0 mm
13:22 20.7 °F /  -6.3 °C 11.3 °F /  -11.5 °C 1030.4 in /  34889.3 hPa East 3.2 mph /  5.1 km/h 11.3 mph /  18.2 km/h 55 % 0.0 in /  0 mm
13:32 21.1 °F /  -6.1 °C 12.2 °F /  -11 °C 1030.4 in /  34889.3 hPa Calm   9.7 mph /  15.6 km/h 57 % 0.0 in /  0 mm
13:37 21.4 °F /  -5.9 °C 11.7 °F /  -11.3 °C 1030.4 in /  34889.3 hPa NE 3.2 mph /  5.1 km/h 9.7 mph /  15.6 km/h 54 % 0.0 in /  0 mm
13:42 21.2 °F /  -6 °C 11.0 °F /  -11.7 °C 1030.4 in /  34889.3 hPa ENE 3.2 mph /  5.1 km/h 8.0 mph /  12.9 km/h 52 % 0.0 in /  0 mm
13:47 21.2 °F /  -6 °C 11.2 °F /  -11.6 °C 1030.4 in /  34889.3 hPa ENE 6.4 mph /  10.3 km/h 8.0 mph /  12.9 km/h 53 % 0.0 in /  0 mm
13:52 21.3 °F /  -5.9 °C 11.0 °F /  -11.7 °C 1030.4 in /  34889.3 hPa ESE 4.8 mph /  7.7 km/h 6.4 mph /  10.3 km/h 52 % 0.0 in /  0 mm
13:57 21.8 °F /  -5.7 °C 12.1 °F /  -11.1 °C 1030.4 in /  34889.3 hPa ENE 4.8 mph /  7.7 km/h 8.0 mph /  12.9 km/h 54 % 0.0 in /  0 mm
14:02 21.7 °F /  -5.7 °C 11.1 °F /  -11.6 °C 1030.4 in /  34889.3 hPa SW 1.6 mph /  2.6 km/h 8.0 mph /  12.9 km/h 51 % 0.0 in /  0 mm
14:12 21.5 °F /  -5.8 °C 11.2 °F /  -11.6 °C 1030.4 in /  34889.3 hPa East 3.2 mph /  5.1 km/h 8.0 mph /  12.9 km/h 52 % 0.0 in /  0 mm
14:17 22.0 °F /  -5.6 °C 10.8 °F /  -11.8 °C 1030.4 in /  34889.3 hPa Calm   8.0 mph /  12.9 km/h 49 % 0.0 in /  0 mm
14:22 22.4 °F /  -5.3 °C 10.8 °F /  -11.8 °C 1030.4 in /  34889.3 hPa Calm   8.0 mph /  12.9 km/h 48 % 0.0 in /  0 mm
14:27 22.6 °F /  -5.2 °C 11.3 °F /  -11.5 °C 1030.4 in /  34889.3 hPa WSW 3.2 mph /  5.1 km/h 8.0 mph /  12.9 km/h 49 % 0.0 in /  0 mm
14:32 22.4 °F /  -5.3 °C 11.2 °F /  -11.6 °C 1030.4 in /  34889.3 hPa ESE 1.6 mph /  2.6 km/h 6.4 mph /  10.3 km/h 49 % 0.0 in /  0 mm
14:37 22.7 °F /  -5.2 °C 11.1 °F /  -11.6 °C 1030.4 in /  34889.3 hPa SW 3.2 mph /  5.1 km/h 6.4 mph /  10.3 km/h 48 % 0.0 in /  0 mm
14:42 22.8 °F /  -5.1 °C 11.5 °F /  -11.4 °C 1030.4 in /  34889.3 hPa SE 1.6 mph /  2.6 km/h 8.0 mph /  12.9 km/h 49 % 0.0 in /  0 mm
14:47 23.1 °F /  -4.9 °C 10.8 °F /  -11.8 °C 1030.4 in /  34889.3 hPa ESE 3.2 mph /  5.1 km/h 8.0 mph /  12.9 km/h 46 % 0.0 in /  0 mm
14:52 23.0 °F /  -5 °C 10.8 °F /  -11.8 °C 1030.0 in /  34875.8 hPa East 1.6 mph /  2.6 km/h 8.0 mph /  12.9 km/h 46 % 0.0 in /  0 mm
14:57 23.0 °F /  -5 °C 11.1 °F /  -11.6 °C 1030.4 in /  34889.3 hPa South 3.2 mph /  5.1 km/h 8.0 mph /  12.9 km/h 47 % 0.0 in /  0 mm
15:02 22.9 °F /  -5.1 °C 9.3 °F /  -12.6 °C 1030.0 in /  34875.8 hPa Calm   8.0 mph /  12.9 km/h 42 % 0.0 in /  0 mm
15:12 22.4 °F /  -5.3 °C 10.8 °F /  -11.8 °C 1030.0 in /  34875.8 hPa South 4.8 mph /  7.7 km/h 9.7 mph /  15.6 km/h 48 % 0.0 in /  0 mm
15:17 22.7 °F /  -5.2 °C 9.1 °F /  -12.7 °C 1030.0 in /  34875.8 hPa Calm   9.7 mph /  15.6 km/h 42 % 0.0 in /  0 mm
15:22 23.0 °F /  -5 °C 9.4 °F /  -12.6 °C 1030.0 in /  34875.8 hPa SSE 1.6 mph /  2.6 km/h 8.0 mph /  12.9 km/h 42 % 0.0 in /  0 mm
15:27 23.1 °F /  -4.9 °C 9.8 °F /  -12.3 °C 1030.0 in /  34875.8 hPa Calm   9.7 mph /  15.6 km/h 43 % 0.0 in /  0 mm
15:32 22.8 °F /  -5.1 °C 10.2 °F /  -12.1 °C 1030.0 in /  34875.8 hPa SW 4.8 mph /  7.7 km/h 9.7 mph /  15.6 km/h 45 % 0.0 in /  0 mm
15:42 22.8 °F /  -5.1 °C 11.2 °F /  -11.6 °C 1029.7 in /  34865.6 hPa East 1.6 mph /  2.6 km/h 8.0 mph /  12.9 km/h 48 % 0.0 in /  0 mm
15:47 22.6 °F /  -5.2 °C 10.4 °F /  -12 °C 1030.0 in /  34875.8 hPa WSW 1.6 mph /  2.6 km/h 9.7 mph /  15.6 km/h 46 % 0.0 in /  0 mm
15:57 22.7 °F /  -5.2 °C 11.7 °F /  -11.3 °C 1029.7 in /  34865.6 hPa SSW 1.6 mph /  2.6 km/h 9.7 mph /  15.6 km/h 50 % 0.0 in /  0 mm
16:02 22.7 °F /  -5.2 °C 10.8 °F /  -11.8 °C 1029.7 in /  34865.6 hPa Calm   4.8 mph /  7.7 km/h 47 % 0.0 in /  0 mm
16:12 23.1 °F /  -4.9 °C 11.2 °F /  -11.6 °C 1029.7 in /  34865.6 hPa ESE 3.2 mph /  5.1 km/h 4.8 mph /  7.7 km/h 47 % 0.0 in /  0 mm
16:17 23.4 °F /  -4.8 °C 10.1 °F /  -12.2 °C 1029.7 in /  34865.6 hPa Calm   4.8 mph /  7.7 km/h 43 % 0.0 in /  0 mm
16:27 23.8 °F /  -4.6 °C 10.5 °F /  -11.9 °C 1029.3 in /  34852.1 hPa Calm   4.8 mph /  7.7 km/h 43 % 0.0 in /  0 mm
16:32 23.7 °F /  -4.6 °C 10.4 °F /  -12 °C 1029.3 in /  34852.1 hPa SW 6.4 mph /  10.3 km/h 6.4 mph /  10.3 km/h 43 % 0.0 in /  0 mm
16:42 23.0 °F /  -5 °C 10.4 °F /  -12 °C 1029.3 in /  34852.1 hPa SW 3.2 mph /  5.1 km/h 12.9 mph /  20.8 km/h 45 % 0.0 in /  0 mm
16:52 23.4 °F /  -4.8 °C 10.1 °F /  -12.2 °C 1029.3 in /  34852.1 hPa Calm   8.0 mph /  12.9 km/h 43 % 0.0 in /  0 mm
16:57 23.5 °F /  -4.7 °C 9.8 °F /  -12.3 °C 1029.3 in /  34852.1 hPa SE 1.6 mph /  2.6 km/h 6.4 mph /  10.3 km/h 42 % 0.0 in /  0 mm
17:02 23.6 °F /  -4.7 °C 10.3 °F /  -12.1 °C 1029.3 in /  34852.1 hPa Calm   6.4 mph /  10.3 km/h 43 % 0.0 in /  0 mm
17:12 23.6 °F /  -4.7 °C 9.9 °F /  -12.3 °C 1029.0 in /  34841.9 hPa Calm   8.0 mph /  12.9 km/h 42 % 0.0 in /  0 mm
17:22 23.6 °F /  -4.7 °C 10.3 °F /  -12.1 °C 1029.0 in /  34841.9 hPa WSW 4.8 mph /  7.7 km/h 8.0 mph /  12.9 km/h 43 % 0.0 in /  0 mm
17:27 23.5 °F /  -4.7 °C 10.5 °F /  -11.9 °C 1029.0 in /  34841.9 hPa SSW 3.2 mph /  5.1 km/h 8.0 mph /  12.9 km/h 44 % 0.0 in /  0 mm
17:32 23.6 °F /  -4.7 °C 10.6 °F /  -11.9 °C 1029.0 in /  34841.9 hPa Calm   9.7 mph /  15.6 km/h 44 % 0.0 in /  0 mm
17:37 23.8 °F /  -4.6 °C 10.8 °F /  -11.8 °C 1029.0 in /  34841.9 hPa SE 1.6 mph /  2.6 km/h 9.7 mph /  15.6 km/h 44 % 0.0 in /  0 mm
17:42 23.9 °F /  -4.5 °C 10.9 °F /  -11.7 °C 1029.0 in /  34841.9 hPa South 1.6 mph /  2.6 km/h 6.4 mph /  10.3 km/h 44 % 0.0 in /  0 mm
17:52 23.6 °F /  -4.7 °C 11.6 °F /  -11.3 °C 1028.7 in /  34831.8 hPa SW 1.6 mph /  2.6 km/h 8.0 mph /  12.9 km/h 47 % 0.0 in /  0 mm
17:57 23.9 °F /  -4.5 °C 12.2 °F /  -11 °C 1028.7 in /  34831.8 hPa SSE 1.6 mph /  2.6 km/h 8.0 mph /  12.9 km/h 48 % 0.0 in /  0 mm
18:07 24.4 °F /  -4.2 °C 11.7 °F /  -11.3 °C 1028.7 in /  34831.8 hPa Calm   4.8 mph /  7.7 km/h 45 % 0.0 in /  0 mm
18:12 24.4 °F /  -4.2 °C 11.4 °F /  -11.4 °C 1028.7 in /  34831.8 hPa Calm   4.8 mph /  7.7 km/h 44 % 0.0 in /  0 mm
18:17 24.7 °F /  -4.1 °C 10.9 °F /  -11.7 °C 1028.7 in /  34831.8 hPa SW 1.6 mph /  2.6 km/h 4.8 mph /  7.7 km/h 42 % 0.0 in /  0 mm
18:22 24.4 °F /  -4.2 °C 11.0 °F /  -11.7 °C 1028.7 in /  34831.8 hPa Calm   1.6 mph /  2.6 km/h 43 % 0.0 in /  0 mm
18:32 24.4 °F /  -4.2 °C 11.4 °F /  -11.4 °C 1028.7 in /  34831.8 hPa Calm   4.8 mph /  7.7 km/h 44 % 0.0 in /  0 mm
18:37 24.7 °F /  -4.1 °C 11.6 °F /  -11.3 °C 1028.7 in /  34831.8 hPa Calm   4.8 mph /  7.7 km/h 44 % 0.0 in /  0 mm
18:42 24.6 °F /  -4.1 °C 11.5 °F /  -11.4 °C 1028.7 in /  34831.8 hPa Calm   3.2 mph /  5.1 km/h 44 % 0.0 in /  0 mm
18:52 24.1 °F /  -4.4 °C 11.1 °F /  -11.6 °C 1028.7 in /  34831.8 hPa East 3.2 mph /  5.1 km/h 3.2 mph /  5.1 km/h 44 % 0.0 in /  0 mm
19:02 24.6 °F /  -4.1 °C 11.5 °F /  -11.4 °C 1028.7 in /  34831.8 hPa Calm   3.2 mph /  5.1 km/h 44 % 0.0 in /  0 mm
19:12 24.7 °F /  -4.1 °C 10.9 °F /  -11.7 °C 1028.7 in /  34831.8 hPa Calm   3.2 mph /  5.1 km/h 42 % 0.0 in /  0 mm
19:22 25.2 °F /  -3.8 °C 11.0 °F /  -11.7 °C 1028.7 in /  34831.8 hPa Calm   1.6 mph /  2.6 km/h 41 % 0.0 in /  0 mm
19:32 24.9 °F /  -3.9 °C 10.7 °F /  -11.8 °C 1028.7 in /  34831.8 hPa Calm   3.2 mph /  5.1 km/h 41 % 0.0 in /  0 mm
19:37 24.8 °F /  -4 °C 11.0 °F /  -11.7 °C 1028.7 in /  34831.8 hPa Calm   3.2 mph /  5.1 km/h 42 % 0.0 in /  0 mm
19:42 24.2 °F /  -4.3 °C 10.8 °F /  -11.8 °C 1028.7 in /  34831.8 hPa Calm   3.2 mph /  5.1 km/h 43 % 0.0 in /  0 mm
19:52 23.7 °F /  -4.6 °C 10.7 °F /  -11.8 °C 1028.7 in /  34831.8 hPa Calm     44 % 0.0 in /  0 mm
19:57 23.9 °F /  -4.5 °C 12.2 °F /  -11 °C 1028.7 in /  34831.8 hPa Calm     48 % 0.0 in /  0 mm
20:02 24.2 °F /  -4.3 °C 11.8 °F /  -11.2 °C 1028.7 in /  34831.8 hPa Calm     46 % 0.0 in /  0 mm
20:07 24.1 °F /  -4.4 °C 12.1 °F /  -11.1 °C 1028.7 in /  34831.8 hPa Calm     47 % 0.0 in /  0 mm
20:12 23.8 °F /  -4.6 °C 12.8 °F /  -10.7 °C 1028.7 in /  34831.8 hPa Calm     50 % 0.0 in /  0 mm
20:17 23.6 °F /  -4.7 °C 13.7 °F /  -10.2 °C 1028.7 in /  34831.8 hPa Calm     54 % 0.0 in /  0 mm
20:22 23.4 °F /  -4.8 °C 11.8 °F /  -11.2 °C 1028.7 in /  34831.8 hPa Calm     48 % 0.0 in /  0 mm
20:27 22.7 °F /  -5.2 °C 10.8 °F /  -11.8 °C 1028.7 in /  34831.8 hPa Calm     47 % 0.0 in /  0 mm
20:32 22.6 °F /  -5.2 °C 11.3 °F /  -11.5 °C 1028.7 in /  34831.8 hPa Calm     49 % 0.0 in /  0 mm
20:37 22.9 °F /  -5.1 °C 11.6 °F /  -11.3 °C 1028.7 in /  34831.8 hPa Calm     49 % 0.0 in /  0 mm
20:42 23.2 °F /  -4.9 °C 12.5 °F /  -10.8 °C 1028.7 in /  34831.8 hPa Calm     51 % 0.0 in /  0 mm
20:47 22.9 °F /  -5.1 °C 12.5 °F /  -10.8 °C 1028.7 in /  34831.8 hPa Calm     52 % 0.0 in /  0 mm
20:52 22.1 °F /  -5.5 °C 11.5 °F /  -11.4 °C 1028.7 in /  34831.8 hPa Calm     51 % 0.0 in /  0 mm
20:57 21.6 °F /  -5.8 °C 11.3 °F /  -11.5 °C 1028.7 in /  34831.8 hPa Calm     52 % 0.0 in /  0 mm
21:02 21.3 °F /  -5.9 °C 11.9 °F /  -11.2 °C 1028.7 in /  34831.8 hPa Calm     55 % 0.0 in /  0 mm
21:12 20.4 °F /  -6.4 °C 11.6 °F /  -11.3 °C 1028.7 in /  34831.8 hPa Calm     57 % 0.0 in /  0 mm
21:17 20.0 °F /  -6.7 °C 11.5 °F /  -11.4 °C 1028.7 in /  34831.8 hPa Calm     58 % 0.0 in /  0 mm
21:22 19.7 °F /  -6.8 °C 12.0 °F /  -11.1 °C 1028.7 in /  34831.8 hPa Calm     61 % 0.0 in /  0 mm
21:32 19.3 °F /  -7.1 °C 11.8 °F /  -11.2 °C 1029.0 in /  34841.9 hPa Calm     62 % 0.0 in /  0 mm
21:37 19.1 °F /  -7.2 °C 11.9 °F /  -11.2 °C 1029.0 in /  34841.9 hPa Calm     63 % 0.0 in /  0 mm
21:42 18.8 °F /  -7.3 °C 12.5 °F /  -10.8 °C 1029.0 in /  34841.9 hPa Calm     67 % 0.0 in /  0 mm
21:52 18.1 °F /  -7.7 °C 12.3 °F /  -10.9 °C 1029.3 in /  34852.1 hPa Calm     69 % 0.0 in /  0 mm
22:02 17.8 °F /  -7.9 °C 13.1 °F /  -10.5 °C 1029.3 in /  34852.1 hPa Calm     74 % 0.0 in /  0 mm
22:12 17.2 °F /  -8.2 °C 12.7 °F /  -10.7 °C 1029.3 in /  34852.1 hPa Calm     75 % 0.0 in /  0 mm
22:17 17.1 °F /  -8.3 °C 12.6 °F /  -10.8 °C 1029.3 in /  34852.1 hPa Calm     75 % 0.0 in /  0 mm
22:22 16.9 °F /  -8.4 °C 12.2 °F /  -11 °C 1029.3 in /  34852.1 hPa Calm     74 % 0.0 in /  0 mm
22:32 16.9 °F /  -8.4 °C 12.0 °F /  -11.1 °C 1029.3 in /  34852.1 hPa Calm   1.6 mph /  2.6 km/h 73 % 0.0 in /  0 mm
22:37 16.9 °F /  -8.4 °C 12.0 °F /  -11.1 °C 1029.3 in /  34852.1 hPa NNW 3.2 mph /  5.1 km/h 3.2 mph /  5.1 km/h 73 % 0.0 in /  0 mm
22:42 16.9 °F /  -8.4 °C 12.0 °F /  -11.1 °C 1029.3 in /  34852.1 hPa Calm   3.2 mph /  5.1 km/h 73 % 0.0 in /  0 mm
22:47 16.7 °F /  -8.5 °C 12.0 °F /  -11.1 °C 1029.3 in /  34852.1 hPa NNW 1.6 mph /  2.6 km/h 3.2 mph /  5.1 km/h 74 % 0.0 in /  0 mm
22:52 16.6 °F /  -8.6 °C 11.7 °F /  -11.3 °C 1029.3 in /  34852.1 hPa Calm   3.2 mph /  5.1 km/h 73 % 0.0 in /  0 mm
22:57 16.3 °F /  -8.7 °C 11.9 °F /  -11.2 °C 1029.3 in /  34852.1 hPa NW 1.6 mph /  2.6 km/h 1.6 mph /  2.6 km/h 75 % 0.0 in /  0 mm
23:02 16.3 °F /  -8.7 °C 11.7 °F /  -11.3 °C 1029.3 in /  34852.1 hPa NW 1.6 mph /  2.6 km/h 1.6 mph /  2.6 km/h 74 % 0.0 in /  0 mm
23:12 16.3 °F /  -8.7 °C 11.7 °F /  -11.3 °C 1029.3 in /  34852.1 hPa NW 1.6 mph /  2.6 km/h 1.6 mph /  2.6 km/h 74 % 0.0 in /  0 mm
23:17 16.1 °F /  -8.8 °C 11.5 °F /  -11.4 °C 1029.3 in /  34852.1 hPa Calm   1.6 mph /  2.6 km/h 74 % 0.0 in /  0 mm
23:22 15.8 °F /  -9 °C 11.6 °F /  -11.3 °C 1029.3 in /  34852.1 hPa Calm   1.6 mph /  2.6 km/h 76 % 0.0 in /  0 mm
23:32 15.3 °F /  -9.3 °C 11.3 °F /  -11.5 °C 1029.3 in /  34852.1 hPa Calm     77 % 0.0 in /  0 mm
23:37 15.5 °F /  -9.2 °C 11.5 °F /  -11.4 °C 1029.3 in /  34852.1 hPa Calm     77 % 0.0 in /  0 mm
23:42 15.6 °F /  -9.1 °C 11.4 °F /  -11.4 °C 1029.3 in /  34852.1 hPa Calm   1.6 mph /  2.6 km/h 76 % 0.0 in /  0 mm
23:52 15.4 °F /  -9.2 °C 11.2 °F /  -11.6 °C 1029.3 in /  34852.1 hPa NW 1.6 mph /  2.6 km/h 3.2 mph /  5.1 km/h 76 % 0.0 in /  0 mm
23:57 15.4 °F /  -9.2 °C 11.4 °F /  -11.4 °C 1029.3 in /  34852.1 hPa Calm   3.2 mph /  5.1 km/h 77 % 0.0 in /  0 mm
Meteo18
Compliments of Weather Underground - 4 mb

Script developed by  Jim McMurry - jmcmurry@mwt.net Adapted for the template by  Wim van der Kuil - Leuven-Template.eu

You find our weather info also at:

European Weather Network

Weather Underground

Equipment we use:

Weather-station
Davis Vue

Weather-program
Meteobridge

Weather-server
Raspberry PI 2 B+

Provider
1 and 1

Davis Vue

Meteobridge

Raspberry PI 2 B+

1 and 1